createdAt,value
2022-08-22T00:00:13.495Z,3.00
2022-08-22T00:01:12.588Z,3.50
2022-08-22T00:02:12.621Z,3.50
2022-08-22T00:02:46.652Z,3.10
2022-08-22T00:03:09.682Z,2.60
2022-08-22T00:03:11.174Z,2.70
2022-08-22T00:03:12.559Z,2.80
2022-08-22T00:03:18.784Z,3.30
2022-08-22T00:04:13.591Z,3.20
2022-08-22T00:05:12.570Z,3.10
2022-08-22T00:06:12.529Z,3.30
2022-08-22T00:07:12.510Z,3.40
2022-08-22T00:08:12.511Z,3.40
2022-08-22T00:09:12.499Z,3.70
2022-08-22T00:10:12.530Z,3.30
2022-08-22T00:11:13.471Z,3.30
2022-08-22T00:12:12.470Z,3.10
2022-08-22T00:13:12.449Z,3.40
2022-08-22T00:14:12.440Z,3.80
2022-08-22T00:15:13.219Z,3.50
2022-08-22T00:16:13.460Z,3.60
2022-08-22T00:17:12.410Z,3.40
2022-08-22T00:18:12.443Z,3.20
2022-08-22T00:19:12.394Z,3.30
2022-08-22T00:20:12.388Z,3.50
2022-08-22T00:21:12.391Z,3.50
2022-08-22T00:22:12.352Z,3.80
2022-08-22T00:23:12.340Z,3.40
2022-08-22T00:24:12.330Z,3.60
2022-08-22T00:25:22.839Z,3.40
2022-08-22T00:26:13.320Z,3.20
2022-08-22T00:27:12.339Z,3.20
2022-08-22T00:28:12.300Z,3.60
2022-08-22T00:29:12.310Z,3.90
2022-08-22T00:30:12.265Z,3.40
2022-08-22T00:31:12.254Z,3.60
2022-08-22T00:32:12.271Z,3.80
2022-08-22T00:33:12.230Z,3.50
2022-08-22T00:34:12.220Z,4.00
2022-08-22T00:35:12.212Z,3.80
2022-08-22T00:36:12.250Z,3.40
2022-08-22T00:37:12.208Z,3.70
2022-08-22T00:38:12.181Z,3.70
2022-08-22T00:39:12.172Z,3.60
2022-08-22T00:40:12.174Z,3.50
2022-08-22T00:41:12.151Z,3.60
2022-08-22T00:42:12.160Z,4.10
2022-08-22T00:43:12.131Z,3.90
2022-08-22T00:44:12.141Z,3.90
2022-08-22T00:45:12.122Z,4.20
2022-08-22T00:46:12.091Z,3.70
2022-08-22T00:47:12.081Z,3.80
2022-08-22T00:48:14.626Z,3.90
2022-08-22T00:49:12.072Z,3.70
2022-08-22T00:50:12.071Z,3.70
2022-08-22T00:51:12.362Z,4.10
2022-08-22T00:52:12.033Z,3.60
2022-08-22T00:53:12.012Z,3.50
2022-08-22T00:54:17.457Z,3.50
2022-08-22T00:55:13.005Z,3.80
2022-08-22T00:56:12.007Z,3.50
2022-08-22T00:57:11.993Z,3.90
2022-08-22T00:58:11.962Z,4.00
2022-08-22T00:59:18.055Z,3.70
2022-08-22T01:00:12.931Z,4.30
2022-08-22T01:01:12.018Z,3.70
2022-08-22T01:02:11.921Z,4.10
2022-08-22T01:03:11.952Z,3.50
2022-08-22T01:04:11.892Z,3.80
2022-08-22T01:05:12.084Z,3.60
2022-08-22T01:06:11.894Z,4.00
2022-08-22T01:07:11.871Z,3.70
2022-08-22T01:08:11.871Z,3.70
2022-08-22T01:09:11.843Z,3.60
2022-08-22T01:10:11.834Z,3.70
2022-08-22T01:11:11.872Z,4.30
2022-08-22T01:12:11.829Z,3.80
2022-08-22T01:13:11.813Z,3.90
2022-08-22T01:14:11.799Z,4.10
2022-08-22T01:15:11.793Z,3.60
2022-08-22T01:16:11.779Z,4.10
2022-08-22T01:17:11.784Z,4.30
2022-08-22T01:18:11.782Z,4.40
2022-08-22T01:19:11.744Z,3.80
2022-08-22T01:20:11.722Z,3.70
2022-08-22T01:21:11.713Z,3.70
2022-08-22T01:22:11.734Z,3.80
2022-08-22T01:23:11.724Z,3.30
2022-08-22T01:24:11.693Z,3.70
2022-08-22T01:25:11.671Z,4.10
2022-08-22T01:26:11.919Z,3.50
2022-08-22T01:27:11.664Z,3.80
2022-08-22T01:28:11.673Z,3.50
2022-08-22T01:29:11.632Z,3.50
2022-08-22T01:30:11.620Z,3.40
2022-08-22T01:31:11.620Z,3.70
2022-08-22T01:32:11.614Z,3.60
2022-08-22T01:33:11.595Z,3.90
2022-08-22T01:34:13.040Z,4.00
2022-08-22T01:35:11.561Z,4.00
2022-08-22T01:36:11.583Z,4.10
2022-08-22T01:37:11.593Z,4.10
2022-08-22T01:38:11.539Z,3.70
2022-08-22T01:39:11.522Z,3.90
2022-08-22T01:40:11.549Z,3.90
2022-08-22T01:41:12.068Z,4.00
2022-08-22T01:42:11.524Z,3.70
2022-08-22T01:43:11.511Z,3.60
2022-08-22T01:44:11.456Z,3.70
2022-08-22T01:45:11.492Z,3.60
2022-08-22T01:46:11.444Z,3.80
2022-08-22T01:47:11.475Z,4.10
2022-08-22T01:48:11.423Z,4.20
2022-08-22T01:49:11.488Z,4.20
2022-08-22T01:50:11.395Z,3.90
2022-08-22T01:51:11.445Z,4.00
2022-08-22T01:52:11.374Z,3.60
2022-08-22T01:53:11.372Z,3.70
2022-08-22T01:54:11.393Z,3.90
2022-08-22T01:55:11.345Z,3.50
2022-08-22T01:56:11.334Z,4.00
2022-08-22T01:57:11.326Z,4.10
2022-08-22T01:58:11.310Z,4.10
2022-08-22T01:59:11.406Z,4.10
2022-08-22T02:00:11.316Z,3.50
2022-08-22T02:01:11.303Z,4.10
2022-08-22T02:02:11.296Z,3.70
2022-08-22T02:03:11.265Z,3.70
2022-08-22T02:04:11.244Z,3.90
2022-08-22T02:05:11.254Z,4.20
2022-08-22T02:06:14.428Z,3.90
2022-08-22T02:07:11.268Z,3.90
2022-08-22T02:08:11.224Z,4.00
2022-08-22T02:09:11.194Z,4.30
2022-08-22T02:10:11.177Z,3.80
2022-08-22T02:11:11.182Z,3.90
2022-08-22T02:12:21.563Z,3.70
2022-08-22T02:13:12.175Z,3.80
2022-08-22T02:14:11.136Z,3.70
2022-08-22T02:15:11.155Z,3.60
2022-08-22T02:16:11.153Z,3.90
2022-08-22T02:17:11.112Z,4.20
2022-08-22T02:18:11.098Z,3.90
2022-08-22T02:19:11.085Z,3.80
2022-08-22T02:20:11.095Z,4.00
2022-08-22T02:21:11.116Z,4.20
2022-08-22T02:22:11.045Z,4.20
2022-08-22T02:23:11.045Z,4.00
2022-08-22T02:24:11.045Z,4.20
2022-08-22T02:25:11.023Z,3.80
2022-08-22T02:26:11.015Z,4.20
2022-08-22T02:27:11.061Z,4.00
2022-08-22T02:28:10.987Z,4.50
2022-08-22T02:29:10.989Z,4.20
2022-08-22T02:30:11.014Z,4.40
2022-08-22T02:31:11.014Z,4.30
2022-08-22T02:32:11.966Z,4.60
2022-08-22T02:33:10.939Z,4.30
2022-08-22T02:34:10.916Z,4.40
2022-08-22T02:35:10.934Z,4.20
2022-08-22T02:36:10.906Z,4.40
2022-08-22T02:37:10.887Z,4.20
2022-08-22T02:38:10.895Z,4.40
2022-08-22T02:39:10.865Z,4.50
2022-08-22T02:40:10.922Z,4.50
2022-08-22T02:41:10.873Z,4.40
2022-08-22T02:42:10.866Z,4.20
2022-08-22T02:43:10.824Z,4.90
2022-08-22T02:44:10.827Z,4.30
2022-08-22T02:45:10.813Z,4.20
2022-08-22T02:46:10.803Z,4.60
2022-08-22T02:47:10.785Z,4.50
2022-08-22T02:48:10.816Z,4.30
2022-08-22T02:49:10.757Z,4.40
2022-08-22T02:50:12.709Z,4.40
2022-08-22T02:51:10.736Z,4.50
2022-08-22T02:52:10.756Z,4.20
2022-08-22T02:53:10.897Z,4.30
2022-08-22T02:54:10.737Z,3.90
2022-08-22T02:55:10.709Z,4.80
2022-08-22T02:56:10.687Z,4.50
2022-08-22T02:57:14.075Z,4.20
2022-08-22T02:58:10.678Z,4.50
2022-08-22T02:59:10.685Z,4.40
2022-08-22T03:00:31.221Z,4.20
2022-08-22T03:01:11.718Z,4.70
2022-08-22T03:02:10.647Z,5.20
2022-08-22T03:03:10.617Z,4.60
2022-08-22T03:04:10.587Z,4.80
2022-08-22T03:05:10.606Z,5.00
2022-08-22T03:06:10.566Z,4.90
2022-08-22T03:07:10.596Z,4.70
2022-08-22T03:08:10.556Z,4.90
2022-08-22T03:09:10.546Z,5.10
2022-08-22T03:10:10.526Z,6.60
2022-08-22T03:11:10.534Z,5.80
2022-08-22T03:12:10.508Z,5.20
2022-08-22T03:13:10.586Z,6.10
2022-08-22T03:14:10.479Z,8.80
2022-08-22T03:15:10.479Z,7.50
2022-08-22T03:16:10.459Z,6.70
2022-08-22T03:17:10.457Z,5.80
2022-08-22T03:18:10.487Z,5.60
2022-08-22T03:19:13.105Z,4.90
2022-08-22T03:20:11.425Z,5.00
2022-08-22T03:21:10.407Z,4.90
2022-08-22T03:22:10.398Z,4.60
2022-08-22T03:23:10.395Z,4.70
2022-08-22T03:24:10.435Z,4.70
2022-08-22T03:25:10.367Z,4.30
2022-08-22T03:26:10.350Z,4.50
2022-08-22T03:27:10.346Z,4.40
2022-08-22T03:28:10.327Z,4.80
2022-08-22T03:29:10.327Z,4.80
2022-08-22T03:30:10.377Z,5.40
2022-08-22T03:31:10.344Z,4.90
2022-08-22T03:32:10.286Z,5.60
2022-08-22T03:33:10.327Z,5.90
2022-08-22T03:34:10.266Z,6.10
2022-08-22T03:35:10.286Z,5.50
2022-08-22T03:36:10.276Z,5.70
2022-08-22T03:37:10.248Z,5.40
2022-08-22T03:38:10.229Z,5.30
2022-08-22T03:39:11.580Z,5.20
2022-08-22T03:40:11.315Z,5.70
2022-08-22T03:41:10.261Z,5.20
2022-08-22T03:42:10.182Z,6.10
2022-08-22T03:43:10.208Z,6.60
2022-08-22T03:44:10.156Z,5.80
2022-08-22T03:45:10.157Z,6.10
2022-08-22T03:46:10.145Z,5.70
2022-08-22T03:47:10.207Z,5.30
2022-08-22T03:48:10.111Z,7.30
2022-08-22T03:49:10.106Z,6.10
2022-08-22T03:50:10.101Z,5.70
2022-08-22T03:51:10.088Z,6.50
2022-08-22T03:52:10.118Z,6.50
2022-08-22T03:53:12.161Z,5.90
2022-08-22T03:54:11.077Z,5.70
2022-08-22T03:55:10.038Z,35.80
2022-08-22T03:56:10.030Z,6.30
2022-08-22T03:57:10.123Z,8.60
2022-08-22T03:58:11.960Z,6.40
2022-08-22T03:59:11.027Z,5.80
2022-08-22T04:00:09.987Z,5.90
2022-08-22T04:01:10.006Z,6.00
2022-08-22T04:02:31.521Z,5.90
2022-08-22T04:03:10.957Z,6.60
2022-08-22T04:04:09.968Z,5.50
2022-08-22T04:05:09.967Z,6.00
2022-08-22T04:06:12.685Z,6.20
2022-08-22T04:07:19.683Z,6.30
2022-08-22T04:08:13.025Z,5.60
2022-08-22T04:09:09.907Z,5.90
2022-08-22T04:10:09.891Z,5.60
2022-08-22T04:11:09.905Z,5.60
2022-08-22T04:12:09.849Z,6.00
2022-08-22T04:13:09.878Z,6.10
2022-08-22T04:14:09.849Z,5.50
2022-08-22T04:15:09.829Z,6.10
2022-08-22T04:16:10.444Z,5.80
2022-08-22T04:17:09.834Z,6.00
2022-08-22T04:18:09.818Z,5.40
2022-08-22T04:19:09.801Z,5.70
2022-08-22T04:20:09.814Z,5.70
2022-08-22T04:21:09.770Z,5.70
2022-08-22T04:22:09.769Z,6.70
2022-08-22T04:23:09.788Z,5.90
2022-08-22T04:24:09.791Z,5.70
2022-08-22T04:25:09.718Z,5.20
2022-08-22T04:26:12.805Z,5.30
2022-08-22T04:27:09.708Z,5.60
2022-08-22T04:28:09.711Z,5.40
2022-08-22T04:29:09.676Z,5.10
2022-08-22T04:30:09.668Z,4.90
2022-08-22T04:31:09.658Z,5.20
2022-08-22T04:32:14.019Z,4.80
2022-08-22T04:33:10.627Z,5.00
2022-08-22T04:34:09.648Z,5.30
2022-08-22T04:35:09.607Z,4.60
2022-08-22T04:36:09.628Z,6.30
2022-08-22T04:37:09.601Z,5.30
2022-08-22T04:38:09.579Z,4.90
2022-08-22T04:39:09.560Z,5.20
2022-08-22T04:40:09.646Z,5.60
2022-08-22T04:41:09.539Z,5.80
2022-08-22T04:42:31.119Z,5.20
2022-08-22T04:43:10.521Z,5.00
2022-08-22T04:44:09.526Z,5.10
2022-08-22T04:45:09.524Z,5.50
2022-08-22T04:46:09.490Z,5.00
2022-08-22T04:47:18.177Z,5.40
2022-08-22T04:48:09.482Z,5.70
2022-08-22T04:49:09.468Z,5.40
2022-08-22T04:50:09.460Z,5.40
2022-08-22T04:51:09.448Z,5.40
2022-08-22T04:52:09.459Z,5.30
2022-08-22T04:53:09.463Z,5.90
2022-08-22T04:54:09.447Z,5.50
2022-08-22T04:55:09.397Z,6.20
2022-08-22T04:56:09.405Z,5.70
2022-08-22T04:57:09.380Z,6.10
2022-08-22T04:58:09.397Z,6.40
2022-08-22T04:59:09.357Z,5.60
2022-08-22T05:00:09.378Z,6.00
2022-08-22T05:01:09.366Z,6.60
2022-08-22T05:02:09.357Z,6.40
2022-08-22T05:03:09.310Z,7.00
2022-08-22T05:04:09.311Z,7.90
2022-08-22T05:05:13.105Z,6.40
2022-08-22T05:06:10.994Z,7.00
2022-08-22T05:07:09.317Z,7.00
2022-08-22T05:08:09.259Z,6.00
2022-08-22T05:09:11.887Z,6.60
2022-08-22T05:10:12.306Z,6.50
2022-08-22T05:11:09.227Z,6.80
2022-08-22T05:12:09.218Z,6.20
2022-08-22T05:13:09.208Z,7.30
2022-08-22T05:14:09.285Z,7.10
2022-08-22T05:15:09.859Z,6.70
2022-08-22T05:16:09.191Z,7.00
2022-08-22T05:17:09.187Z,6.10
2022-08-22T05:18:09.168Z,6.60
2022-08-22T05:19:12.079Z,6.70
2022-08-22T05:20:10.535Z,6.80
2022-08-22T05:21:09.140Z,6.60
2022-08-22T05:22:09.113Z,6.50
2022-08-22T05:23:17.082Z,6.90
2022-08-22T05:24:10.128Z,6.60
2022-08-22T05:25:09.078Z,6.40
2022-08-22T05:26:09.068Z,6.80
2022-08-22T05:27:09.048Z,7.00
2022-08-22T05:28:09.048Z,7.00
2022-08-22T05:29:09.058Z,6.50
2022-08-22T05:30:09.038Z,6.30
2022-08-22T05:31:09.082Z,7.50
2022-08-22T05:32:09.010Z,7.00
2022-08-22T05:33:08.980Z,7.00
2022-08-22T05:34:08.978Z,7.20
2022-08-22T05:35:08.959Z,6.80
2022-08-22T05:36:08.989Z,6.80
2022-08-22T05:37:08.961Z,6.70
2022-08-22T05:38:08.941Z,6.70
2022-08-22T05:39:08.919Z,7.10
2022-08-22T05:40:09.058Z,7.50
2022-08-22T05:41:08.898Z,7.50
2022-08-22T05:42:08.918Z,7.80
2022-08-22T05:43:08.881Z,8.00
2022-08-22T05:44:08.901Z,7.70
2022-08-22T05:45:11.674Z,8.10
2022-08-22T05:46:08.889Z,8.00
2022-08-22T05:47:08.868Z,7.70
2022-08-22T05:48:08.829Z,8.60
2022-08-22T05:49:08.819Z,7.60
2022-08-22T05:50:08.809Z,8.30
2022-08-22T05:51:08.787Z,7.70
2022-08-22T05:52:08.824Z,7.50
2022-08-22T05:53:08.800Z,8.00
2022-08-22T05:54:08.767Z,7.30
2022-08-22T05:55:08.748Z,7.80
2022-08-22T05:56:08.739Z,8.50
2022-08-22T05:57:08.747Z,7.90
2022-08-22T05:58:08.769Z,8.20
2022-08-22T05:59:08.726Z,8.10
2022-08-22T06:00:08.699Z,8.00
2022-08-22T06:01:08.680Z,8.00
2022-08-22T06:02:08.740Z,7.70
2022-08-22T06:03:08.664Z,8.10
2022-08-22T06:04:08.682Z,8.40
2022-08-22T06:05:11.860Z,8.20
2022-08-22T06:06:08.629Z,7.90
2022-08-22T06:07:08.621Z,7.90
2022-08-22T06:08:08.620Z,8.00
2022-08-22T06:09:08.650Z,8.20
2022-08-22T06:10:08.658Z,8.60
2022-08-22T06:11:08.568Z,8.30
2022-08-22T06:12:08.670Z,8.60
2022-08-22T06:13:11.688Z,8.70
2022-08-22T06:14:08.549Z,8.60
2022-08-22T06:15:11.670Z,8.60
2022-08-22T06:16:09.287Z,7.90
2022-08-22T06:17:08.501Z,8.80
2022-08-22T06:18:08.501Z,8.80
2022-08-22T06:19:19.479Z,8.90
2022-08-22T06:20:09.501Z,9.30
2022-08-22T06:21:08.461Z,8.60
2022-08-22T06:22:08.460Z,8.90
2022-08-22T06:23:08.445Z,9.00
2022-08-22T06:24:08.441Z,8.80
2022-08-22T06:25:08.459Z,9.00
2022-08-22T06:26:20.570Z,8.80
2022-08-22T06:27:09.391Z,8.80
2022-08-22T06:28:08.380Z,8.90
2022-08-22T06:29:08.390Z,8.70
2022-08-22T06:30:08.362Z,8.20
2022-08-22T06:31:08.381Z,9.20
2022-08-22T06:32:08.369Z,9.90
2022-08-22T06:33:08.360Z,9.20
2022-08-22T06:34:08.372Z,8.90
2022-08-22T06:35:08.323Z,8.90
2022-08-22T06:36:08.353Z,9.00
2022-08-22T06:37:08.292Z,9.00
2022-08-22T06:38:08.282Z,9.20
2022-08-22T06:39:08.290Z,8.80
2022-08-22T06:40:08.317Z,8.90
2022-08-22T06:41:08.252Z,9.20
2022-08-22T06:42:09.563Z,9.50
2022-08-22T06:43:08.221Z,9.60
2022-08-22T06:44:08.215Z,9.90
2022-08-22T06:45:08.212Z,10.20
2022-08-22T06:46:08.202Z,9.70
2022-08-22T06:47:08.211Z,10.30
2022-08-22T06:48:08.183Z,9.80
2022-08-22T06:49:08.161Z,9.50
2022-08-22T06:50:08.164Z,10.10
2022-08-22T06:51:09.132Z,9.90
2022-08-22T06:52:08.130Z,9.20
2022-08-22T06:53:08.141Z,9.50
2022-08-22T06:54:08.110Z,9.70
2022-08-22T06:55:08.091Z,9.40
2022-08-22T06:56:08.093Z,9.40
2022-08-22T06:57:08.122Z,9.20
2022-08-22T06:58:08.062Z,9.90
2022-08-22T06:59:08.066Z,10.60
2022-08-22T07:00:08.042Z,11.40
2022-08-22T07:01:15.766Z,21.10
2022-08-22T07:02:09.101Z,17.10
2022-08-22T07:03:08.046Z,11.20
2022-08-22T07:04:07.992Z,11.90
2022-08-22T07:05:08.029Z,10.50
2022-08-22T07:06:07.973Z,11.00
2022-08-22T07:07:07.962Z,20.90
2022-08-22T07:08:07.990Z,13.00
2022-08-22T07:09:07.952Z,11.60
2022-08-22T07:10:07.930Z,10.50
2022-08-22T07:11:07.921Z,10.40
2022-08-22T07:12:07.909Z,11.00
2022-08-22T07:13:07.900Z,11.00
2022-08-22T07:14:07.967Z,10.80
2022-08-22T07:15:07.874Z,11.60
2022-08-22T07:16:07.902Z,11.30
2022-08-22T07:17:07.852Z,10.40
2022-08-22T07:18:07.843Z,11.10
2022-08-22T07:19:07.833Z,10.30
2022-08-22T07:20:07.854Z,11.20
2022-08-22T07:21:07.804Z,10.60
2022-08-22T07:22:07.812Z,10.70
2022-08-22T07:23:07.793Z,10.40
2022-08-22T07:24:07.783Z,11.40
2022-08-22T07:25:07.793Z,11.50
2022-08-22T07:26:07.763Z,10.90
2022-08-22T07:27:07.804Z,10.80
2022-08-22T07:28:07.736Z,10.80
2022-08-22T07:29:11.240Z,10.40
2022-08-22T07:30:10.042Z,10.80
2022-08-22T07:31:07.723Z,11.10
2022-08-22T07:32:07.711Z,10.90
2022-08-22T07:33:25.928Z,10.30
2022-08-22T07:34:08.663Z,9.80
2022-08-22T07:35:07.654Z,10.30
2022-08-22T07:36:07.682Z,10.20
2022-08-22T07:37:07.663Z,12.20
2022-08-22T07:38:07.623Z,23.00
2022-08-22T07:39:07.636Z,16.30
2022-08-22T07:40:07.671Z,15.30
2022-08-22T07:41:07.617Z,12.50
2022-08-22T07:42:07.631Z,12.30
2022-08-22T07:43:07.593Z,12.50
2022-08-22T07:44:07.574Z,11.30
2022-08-22T07:45:07.559Z,11.10
2022-08-22T07:46:07.544Z,10.70
2022-08-22T07:47:07.544Z,11.60
2022-08-22T07:48:07.673Z,11.40
2022-08-22T07:49:09.391Z,11.00
2022-08-22T07:50:07.505Z,12.50
2022-08-22T07:51:07.504Z,12.50
2022-08-22T07:52:07.526Z,11.60
2022-08-22T07:53:07.465Z,12.80
2022-08-22T07:54:07.455Z,11.80
2022-08-22T07:55:07.455Z,10.70
2022-08-22T07:56:07.433Z,10.40
2022-08-22T07:57:07.451Z,11.50
2022-08-22T07:58:07.444Z,11.80
2022-08-22T07:59:12.797Z,12.20
2022-08-22T08:00:08.385Z,11.90
2022-08-22T08:01:07.383Z,11.50
2022-08-22T08:02:07.381Z,12.50
2022-08-22T08:03:07.359Z,10.70
2022-08-22T08:04:07.376Z,10.70
2022-08-22T08:05:07.366Z,11.40
2022-08-22T08:06:07.335Z,12.20
2022-08-22T08:07:07.315Z,13.00
2022-08-22T08:08:07.303Z,12.30
2022-08-22T08:09:07.293Z,11.50
2022-08-22T08:10:12.420Z,11.90
2022-08-22T08:11:08.304Z,11.90
2022-08-22T08:12:07.311Z,11.70
2022-08-22T08:13:07.247Z,8.60
2022-08-22T08:14:07.242Z,10.80
2022-08-22T08:15:07.239Z,9.50
2022-08-22T08:16:07.257Z,7.50
2022-08-22T08:17:07.204Z,9.20
2022-08-22T08:18:07.206Z,9.70
2022-08-22T08:19:07.177Z,9.70
2022-08-22T08:20:07.178Z,9.70
2022-08-22T08:21:07.205Z,9.20
2022-08-22T08:22:07.187Z,8.30
2022-08-22T08:23:07.164Z,9.30
2022-08-22T08:24:07.142Z,8.10
2022-08-22T08:25:07.136Z,9.00
2022-08-22T08:26:07.156Z,9.20
2022-08-22T08:27:07.095Z,8.40
2022-08-22T08:28:07.088Z,7.80
2022-08-22T08:29:07.078Z,7.30
2022-08-22T08:30:07.089Z,7.80
2022-08-22T08:31:07.078Z,7.10
2022-08-22T08:32:07.087Z,8.10
2022-08-22T08:33:24.417Z,7.20
2022-08-22T08:34:08.026Z,7.70
2022-08-22T08:35:07.006Z,7.70
2022-08-22T08:36:06.997Z,10.80
2022-08-22T08:37:07.017Z,9.80
2022-08-22T08:38:06.977Z,8.30
2022-08-22T08:39:06.964Z,7.80
2022-08-22T08:40:06.998Z,9.20
2022-08-22T08:41:06.968Z,7.80
2022-08-22T08:42:06.969Z,7.00
2022-08-22T08:43:10.753Z,6.30
2022-08-22T08:44:06.938Z,5.70
2022-08-22T08:45:06.938Z,5.90
2022-08-22T08:46:06.898Z,4.90
2022-08-22T08:47:06.885Z,5.60
2022-08-22T08:48:06.956Z,5.00
2022-08-22T08:49:06.871Z,5.30
2022-08-22T08:50:06.848Z,5.30
2022-08-22T08:51:06.839Z,6.30
2022-08-22T08:52:06.870Z,5.50
2022-08-22T08:53:06.820Z,5.30
2022-08-22T08:54:06.813Z,5.00
2022-08-22T08:55:16.042Z,5.90
2022-08-22T08:56:07.788Z,5.30
2022-08-22T08:57:06.818Z,6.30
2022-08-22T08:58:07.284Z,6.00
2022-08-22T09:00:07.741Z,5.50
2022-08-22T09:01:06.767Z,5.80
2022-08-22T09:02:06.753Z,5.40
2022-08-22T09:03:07.109Z,4.20
2022-08-22T09:04:06.690Z,4.10
2022-08-22T09:05:07.690Z,4.10
2022-08-22T09:06:06.679Z,3.50
2022-08-22T09:07:06.669Z,4.00
2022-08-22T09:08:06.650Z,4.40
2022-08-22T09:09:07.681Z,4.80
2022-08-22T09:10:06.630Z,6.00
2022-08-22T09:11:09.965Z,5.90
2022-08-22T09:12:07.620Z,5.80
2022-08-22T09:13:11.644Z,6.10
2022-08-22T09:14:07.583Z,4.90
2022-08-22T09:15:11.837Z,4.70
2022-08-22T09:16:07.590Z,5.00
2022-08-22T09:17:06.837Z,4.80
2022-08-22T09:18:06.621Z,5.00
2022-08-22T09:19:06.545Z,4.60
2022-08-22T09:20:17.520Z,4.60
2022-08-22T09:21:07.567Z,4.50
2022-08-22T09:22:06.509Z,4.30
2022-08-22T09:23:10.880Z,8.00
2022-08-22T09:24:06.478Z,4.90
2022-08-22T09:25:06.560Z,5.70
2022-08-22T09:26:06.470Z,5.40
2022-08-22T09:27:08.434Z,4.20
2022-08-22T09:28:06.490Z,4.10
2022-08-22T09:29:06.433Z,4.20
2022-08-22T09:30:06.442Z,4.10
2022-08-22T09:31:22.336Z,3.70
2022-08-22T09:32:07.391Z,3.50
2022-08-22T09:33:07.433Z,4.20
2022-08-22T09:34:06.392Z,4.20
2022-08-22T09:35:06.371Z,3.50
2022-08-22T09:36:06.375Z,3.50
2022-08-22T09:37:07.359Z,3.80
2022-08-22T09:38:06.341Z,3.90
2022-08-22T09:39:06.350Z,6.40
2022-08-22T09:40:06.338Z,4.60
2022-08-22T09:40:16.698Z,5.40
2022-08-22T09:41:06.312Z,3.50
2022-08-22T09:42:06.292Z,4.60
2022-08-22T09:43:06.366Z,3.90
2022-08-22T09:44:06.274Z,3.30
2022-08-22T09:45:06.263Z,3.50
2022-08-22T09:46:06.244Z,5.20
2022-08-22T09:47:06.241Z,2.90
2022-08-22T09:48:07.311Z,3.10
2022-08-22T09:49:06.655Z,3.00
2022-08-22T09:50:06.203Z,3.00
2022-08-22T09:51:31.713Z,2.80
2022-08-22T09:52:15.246Z,2.50
2022-08-22T09:53:07.173Z,3.30
2022-08-22T09:54:06.181Z,3.70
2022-08-22T09:55:08.131Z,3.10
2022-08-22T09:56:15.115Z,3.20
2022-08-22T09:57:07.144Z,2.80
2022-08-22T09:58:06.178Z,3.50
2022-08-22T09:59:07.113Z,4.00
2022-08-22T10:00:06.144Z,3.00
2022-08-22T10:01:06.128Z,3.30
2022-08-22T10:02:06.189Z,4.50
2022-08-22T10:03:07.115Z,3.90
2022-08-22T10:04:06.062Z,3.50
2022-08-22T10:05:06.078Z,3.20
2022-08-22T10:06:06.998Z,3.00
2022-08-22T10:07:11.708Z,2.80
2022-08-22T10:08:07.015Z,2.80
2022-08-22T10:09:06.065Z,2.80
2022-08-22T10:10:06.006Z,2.40
2022-08-22T10:11:06.614Z,2.50
2022-08-22T10:12:05.975Z,2.40
2022-08-22T10:13:10.484Z,2.60
2022-08-22T10:14:07.710Z,2.60
2022-08-22T10:15:06.788Z,2.60
2022-08-22T10:16:05.955Z,2.80
2022-08-22T10:17:06.219Z,2.30
2022-08-22T10:18:05.906Z,3.50
2022-08-22T10:19:05.897Z,3.40
2022-08-22T10:20:05.893Z,3.00
2022-08-22T10:21:05.883Z,3.40
2022-08-22T10:22:05.877Z,3.60
2022-08-22T10:23:05.845Z,2.70
2022-08-22T10:24:07.242Z,2.90
2022-08-22T10:25:05.826Z,3.00
2022-08-22T10:26:05.842Z,2.70
2022-08-22T10:27:05.833Z,2.50
2022-08-22T10:28:05.818Z,2.40
2022-08-22T10:29:05.787Z,2.80
2022-08-22T10:30:05.900Z,2.30
2022-08-22T10:31:05.766Z,2.30
2022-08-22T10:32:10.736Z,2.70
2022-08-22T10:33:06.789Z,2.60
2022-08-22T10:34:05.728Z,2.80
2022-08-22T10:35:06.351Z,2.30
2022-08-22T10:36:05.710Z,2.80
2022-08-22T10:37:05.706Z,4.20
2022-08-22T10:38:05.711Z,4.30
2022-08-22T10:39:10.899Z,3.00
2022-08-22T10:40:06.758Z,2.90
2022-08-22T10:41:09.198Z,2.40
2022-08-22T10:42:05.641Z,3.20
2022-08-22T10:43:05.638Z,2.70
2022-08-22T10:44:05.627Z,2.70
2022-08-22T10:45:06.882Z,5.10
2022-08-22T10:46:06.768Z,2.80
2022-08-22T10:48:16.142Z,2.10
2022-08-22T10:49:18.045Z,2.40
2022-08-22T10:50:17.847Z,2.40
2022-08-22T10:51:16.040Z,2.80
2022-08-22T10:52:16.366Z,3.00
2022-08-22T10:53:16.021Z,3.40
2022-08-22T10:54:19.758Z,3.00
2022-08-22T10:55:16.002Z,3.00
2022-08-22T10:56:16.023Z,2.20
2022-08-22T10:57:20.753Z,3.80
2022-08-22T10:58:15.996Z,4.40
2022-08-22T10:59:16.965Z,3.40
2022-08-22T11:00:15.952Z,2.80
2022-08-22T11:01:41.547Z,3.00
2022-08-22T11:02:16.932Z,2.80
2022-08-22T11:03:21.435Z,2.80
2022-08-22T11:04:16.924Z,2.40
2022-08-22T11:05:15.910Z,2.20
2022-08-22T11:06:15.920Z,2.80
2022-08-22T11:07:15.883Z,2.20
2022-08-22T11:08:15.903Z,2.50
2022-08-22T11:09:15.852Z,2.60
2022-08-22T11:10:15.854Z,2.60
2022-08-22T11:11:15.833Z,3.10
2022-08-22T11:12:15.833Z,2.80
2022-08-22T11:13:15.844Z,3.30
2022-08-22T11:14:15.814Z,3.00
2022-08-22T11:15:15.794Z,3.10
2022-08-22T11:16:16.805Z,2.70
2022-08-22T11:17:31.040Z,2.90
2022-08-22T11:18:16.793Z,2.80
2022-08-22T11:19:16.028Z,3.00
2022-08-22T11:20:15.888Z,2.50
2022-08-22T11:21:15.725Z,3.40
2022-08-22T11:22:15.724Z,2.50
2022-08-22T11:23:15.713Z,2.60
2022-08-22T11:24:17.421Z,2.70
2022-08-22T11:25:29.272Z,2.50
2022-08-22T11:26:29.213Z,2.30
2022-08-22T11:27:17.756Z,2.50
2022-08-22T11:28:15.660Z,2.40
2022-08-22T11:29:15.647Z,2.20
2022-08-22T11:30:18.366Z,2.50
2022-08-22T11:31:15.650Z,2.70
2022-08-22T11:32:15.682Z,2.50
2022-08-22T11:33:15.606Z,2.40
2022-08-22T11:34:15.598Z,2.40
2022-08-22T11:35:16.584Z,2.30
2022-08-22T11:36:15.584Z,2.30
2022-08-22T11:37:15.606Z,3.00
2022-08-22T11:38:15.576Z,2.70
2022-08-22T11:39:18.709Z,2.60
2022-08-22T11:40:15.636Z,2.80
2022-08-22T11:41:15.553Z,2.60
2022-08-22T11:42:15.511Z,2.30
2022-08-22T11:43:18.188Z,2.30
2022-08-22T11:44:15.512Z,2.10
2022-08-22T11:45:16.408Z,2.30
2022-08-22T11:46:15.556Z,2.00
2022-08-22T11:47:15.457Z,2.10
2022-08-22T11:48:15.477Z,2.40
2022-08-22T11:49:15.430Z,2.00
2022-08-22T11:50:15.458Z,2.00
2022-08-22T11:51:15.482Z,2.00
2022-08-22T11:52:15.448Z,2.20
2022-08-22T11:53:15.390Z,2.20
2022-08-22T11:54:15.456Z,2.20
2022-08-22T11:55:15.373Z,2.00
2022-08-22T11:56:15.418Z,2.30
2022-08-22T11:57:15.360Z,2.70
2022-08-22T11:58:15.349Z,2.00
2022-08-22T11:59:15.338Z,2.30
2022-08-22T12:00:15.418Z,2.30
2022-08-22T12:01:17.450Z,2.30
2022-08-22T12:02:15.342Z,2.00
2022-08-22T12:03:15.288Z,2.10
2022-08-22T12:04:15.279Z,2.10
2022-08-22T12:05:20.082Z,2.20
2022-08-22T12:06:16.298Z,2.10
2022-08-22T12:07:15.240Z,2.10
2022-08-22T12:08:15.260Z,2.10
2022-08-22T12:09:17.996Z,2.00
2022-08-22T12:10:15.379Z,2.00
2022-08-22T12:11:15.249Z,2.50
2022-08-22T12:12:15.229Z,2.40
2022-08-22T12:13:15.216Z,2.00
2022-08-22T12:14:15.183Z,2.30
2022-08-22T12:15:15.191Z,2.10
2022-08-22T12:16:15.151Z,2.00
2022-08-22T12:17:50.847Z,2.10
2022-08-22T12:18:21.400Z,2.30
2022-08-22T12:19:16.121Z,2.20
2022-08-22T12:20:16.566Z,2.50
2022-08-22T12:21:15.111Z,2.00
2022-08-22T12:22:15.087Z,2.10
2022-08-22T12:23:15.079Z,2.20
2022-08-22T12:24:20.874Z,2.20
2022-08-22T12:25:16.051Z,2.00
2022-08-22T12:26:15.092Z,2.60
2022-08-22T12:27:18.367Z,2.90
2022-08-22T12:28:16.029Z,2.60
2022-08-22T12:29:16.783Z,2.00
2022-08-22T12:30:15.015Z,2.80
2022-08-22T12:31:14.998Z,2.60
2022-08-22T12:32:14.992Z,2.40
2022-08-22T12:33:20.813Z,2.30
2022-08-22T12:34:15.972Z,2.40
2022-08-22T12:35:14.993Z,2.00
2022-08-22T12:36:18.138Z,2.20
2022-08-22T12:37:14.933Z,2.30
2022-08-22T12:38:27.894Z,2.30
2022-08-22T12:39:15.913Z,2.20
2022-08-22T12:40:15.042Z,2.70
2022-08-22T12:41:28.349Z,2.20
2022-08-22T12:42:15.894Z,2.20
2022-08-22T12:43:14.863Z,2.10
2022-08-22T12:44:17.156Z,2.30
2022-08-22T12:45:14.854Z,2.40
2022-08-22T12:46:14.885Z,2.20
2022-08-22T12:47:14.823Z,2.30
2022-08-22T12:48:14.823Z,2.20
2022-08-22T12:49:14.803Z,2.10
2022-08-22T12:50:14.804Z,2.30
2022-08-22T12:51:17.754Z,2.40
2022-08-22T12:52:14.773Z,2.20
2022-08-22T12:53:18.223Z,2.00
2022-08-22T12:54:15.755Z,2.30
2022-08-22T12:55:14.743Z,2.30
2022-08-22T12:56:14.755Z,2.40
2022-08-22T12:57:23.318Z,2.30
2022-08-22T12:58:15.704Z,2.40
2022-08-22T12:59:14.886Z,2.10
2022-08-22T13:00:14.685Z,2.30
2022-08-22T13:01:15.765Z,2.10
2022-08-22T13:02:14.685Z,2.10
2022-08-22T13:03:14.698Z,2.10
2022-08-22T13:04:32.641Z,2.40
2022-08-22T13:05:20.010Z,2.20
2022-08-22T13:06:15.228Z,2.40
2022-08-22T13:07:14.616Z,2.40
2022-08-22T13:08:17.379Z,2.40
2022-08-22T13:09:14.627Z,2.40
2022-08-22T13:10:14.585Z,2.00
2022-08-22T13:11:22.591Z,2.60
2022-08-22T13:12:15.597Z,2.20